createdAt,value
2023-05-20T00:01:23.984Z,102700.53
2023-05-20T00:03:50.631Z,102693.28
2023-05-20T00:06:17.086Z,102696.09
2023-05-20T00:08:43.550Z,102690.81
2023-05-20T00:11:09.962Z,102700.00
2023-05-20T00:13:36.408Z,102692.75
2023-05-20T00:16:02.949Z,102699.16
2023-05-20T00:18:29.425Z,102696.53
2023-05-20T00:20:55.800Z,102694.84
2023-05-20T00:23:22.239Z,102704.00
2023-05-20T00:25:49.876Z,102702.25
2023-05-20T00:28:16.481Z,102702.31
2023-05-20T00:30:43.274Z,102709.59
2023-05-20T00:33:09.801Z,102700.66
2023-05-20T00:35:36.642Z,102698.88
2023-05-20T00:38:03.164Z,102698.00
2023-05-20T00:40:29.592Z,102698.09
2023-05-20T00:42:55.948Z,102688.16
2023-05-20T00:45:22.825Z,102690.09
2023-05-20T00:47:49.475Z,102691.06
2023-05-20T00:50:17.385Z,102693.00
2023-05-20T00:52:45.348Z,102696.69
2023-05-20T00:55:12.302Z,102688.50
2023-05-20T00:57:39.466Z,102688.69
2023-05-20T01:00:08.136Z,102686.91
2023-05-20T01:02:34.718Z,102685.13
2023-05-20T01:05:01.380Z,102673.47
2023-05-20T01:07:27.852Z,102681.63
2023-05-20T01:09:56.145Z,102678.09
2023-05-20T01:12:29.605Z,102681.81
2023-05-20T01:15:05.770Z,102673.63
2023-05-20T01:17:33.222Z,102664.63
2023-05-20T01:20:01.430Z,102664.75
2023-05-20T01:22:28.962Z,102663.88
2023-05-20T01:24:55.806Z,102661.31
2023-05-20T01:27:23.442Z,102656.81
2023-05-20T01:29:51.705Z,102663.22
2023-05-20T01:32:23.642Z,102662.34
2023-05-20T01:34:52.140Z,102657.00
2023-05-20T01:37:19.545Z,102658.91
2023-05-20T01:39:47.317Z,102659.91
2023-05-20T01:42:16.075Z,102646.34
2023-05-20T01:44:43.365Z,102639.13
2023-05-20T01:47:09.799Z,102635.53
2023-05-20T01:49:36.411Z,102636.50
2023-05-20T01:52:03.663Z,102635.69
2023-05-20T01:54:30.242Z,102638.50
2023-05-20T01:56:56.721Z,102648.53
2023-05-20T01:59:23.068Z,102646.75
2023-05-20T02:01:49.522Z,102639.56
2023-05-20T02:04:16.156Z,102642.31
2023-05-20T02:06:42.724Z,102642.38
2023-05-20T02:09:09.137Z,102637.00
2023-05-20T02:11:36.236Z,102641.66
2023-05-20T02:14:02.696Z,102638.94
2023-05-20T02:16:29.150Z,102636.28
2023-05-20T02:18:55.778Z,102641.72
2023-05-20T02:21:22.346Z,102639.09
2023-05-20T02:23:48.770Z,102639.19
2023-05-20T02:26:15.368Z,102645.50
2023-05-20T02:28:46.493Z,102641.13
2023-05-20T02:31:13.401Z,102640.25
2023-05-20T02:33:39.871Z,102644.03
2023-05-20T02:36:06.587Z,102638.66
2023-05-20T02:38:33.028Z,102633.19
2023-05-20T02:40:59.881Z,102635.03
2023-05-20T02:43:26.399Z,102628.69
2023-05-20T02:45:52.959Z,102629.69
2023-05-20T02:48:19.367Z,102626.16
2023-05-20T02:50:48.011Z,102626.16
2023-05-20T02:53:14.458Z,102621.69
2023-05-20T02:55:41.099Z,102627.13
2023-05-20T02:58:07.553Z,102620.00
2023-05-20T03:00:40.560Z,102619.09
2023-05-20T03:03:08.287Z,102616.50
2023-05-20T03:05:37.946Z,102617.44
2023-05-20T03:08:12.160Z,102621.13
2023-05-20T03:10:39.496Z,102633.00
2023-05-20T03:13:11.344Z,102627.56
2023-05-20T03:15:38.706Z,102630.34
2023-05-20T03:18:06.040Z,102625.06
2023-05-20T03:20:32.773Z,102626.84
2023-05-20T03:22:59.300Z,102625.97
2023-05-20T03:25:26.331Z,102625.09
2023-05-20T03:27:52.820Z,102619.75
2023-05-20T03:30:19.256Z,102636.09
2023-05-20T03:32:45.719Z,102628.88
2023-05-20T03:35:12.441Z,102635.28
2023-05-20T03:37:39.748Z,102629.00
2023-05-20T03:40:07.124Z,102631.78
2023-05-20T03:42:34.412Z,102634.50
2023-05-20T03:45:00.879Z,102632.72
2023-05-20T03:47:28.038Z,102630.00
2023-05-20T03:49:54.858Z,102623.69
2023-05-20T03:52:21.559Z,102629.13
2023-05-20T03:54:48.006Z,102631.06
2023-05-20T03:57:14.474Z,102623.84
2023-05-20T03:59:41.072Z,102627.47
2023-05-20T04:02:08.159Z,102623.84
2023-05-20T04:04:34.759Z,102623.06
2023-05-20T04:07:01.321Z,102626.69
2023-05-20T04:09:27.800Z,102625.78
2023-05-20T04:11:54.258Z,102623.06
2023-05-20T04:14:20.668Z,102626.75
2023-05-20T04:16:47.172Z,102632.19
2023-05-20T04:19:13.649Z,102628.59
2023-05-20T04:21:43.292Z,102625.97
2023-05-20T04:24:09.710Z,102629.56
2023-05-20T04:26:36.112Z,102625.84
2023-05-20T04:29:04.166Z,102626.84
2023-05-20T04:31:31.789Z,102629.56
2023-05-20T04:33:58.351Z,102629.56
2023-05-20T04:36:30.408Z,102631.31
2023-05-20T04:38:57.277Z,102632.19
2023-05-20T04:41:24.186Z,102636.75
2023-05-20T04:43:50.651Z,102632.19
2023-05-20T04:46:17.145Z,102636.75
2023-05-20T04:48:43.998Z,102641.25
2023-05-20T04:51:11.057Z,102644.91
2023-05-20T04:53:38.134Z,102639.47
2023-05-20T04:56:05.723Z,102643.97
2023-05-20T04:58:33.304Z,102641.25
2023-05-20T05:01:00.050Z,102638.53
2023-05-20T05:03:26.508Z,102634.03
2023-05-20T05:05:56.634Z,102635.78
2023-05-20T05:08:23.030Z,102634.91
2023-05-20T05:10:49.601Z,102633.97
2023-05-20T05:13:16.108Z,102633.00
2023-05-20T05:15:42.560Z,102629.41
2023-05-20T05:18:09.588Z,102627.47
2023-05-20T05:20:36.271Z,102632.03
2023-05-20T05:23:02.882Z,102632.91
2023-05-20T05:25:29.371Z,102632.91
2023-05-20T05:27:55.952Z,102619.28
2023-05-20T05:30:22.470Z,102632.84
2023-05-20T05:32:49.070Z,102625.56
2023-05-20T05:35:15.552Z,102618.22
2023-05-20T05:37:42.022Z,102624.56
2023-05-20T05:40:09.180Z,102614.56
2023-05-20T05:42:35.662Z,102616.41
2023-05-20T05:45:02.186Z,102619.94
2023-05-20T05:47:32.384Z,102619.94
2023-05-20T05:50:00.048Z,102615.38
2023-05-20T05:52:27.306Z,102616.22
2023-05-20T05:54:54.532Z,102618.00
2023-05-20T05:57:20.996Z,102618.00
2023-05-20T05:59:47.421Z,102612.53
2023-05-20T06:02:14.698Z,102616.09
2023-05-20T06:04:41.594Z,102617.03
2023-05-20T06:07:08.066Z,102616.09
2023-05-20T06:09:34.605Z,102597.88
2023-05-20T06:12:01.075Z,102608.56
2023-05-20T06:14:27.517Z,102611.22
2023-05-20T06:16:54.049Z,102613.66
2023-05-20T06:19:20.711Z,102607.19
2023-05-20T06:21:47.202Z,102607.91
2023-05-20T06:24:13.710Z,102605.06
2023-05-20T06:26:40.135Z,102608.59
2023-05-20T06:29:06.681Z,102607.53
2023-05-20T06:31:33.628Z,102610.19
2023-05-20T06:34:00.201Z,102610.03
2023-05-20T06:36:27.593Z,102607.13
2023-05-20T06:38:54.103Z,102612.41
2023-05-20T06:41:22.342Z,102607.72
2023-05-20T06:43:50.106Z,102610.38
2023-05-20T06:46:17.703Z,102605.81
2023-05-20T06:48:44.416Z,102597.53
2023-05-20T06:51:10.782Z,102602.84
2023-05-20T06:53:37.387Z,102594.56
2023-05-20T06:56:03.929Z,102603.44
2023-05-20T06:58:30.548Z,102593.34
2023-05-20T07:00:57.016Z,102589.63
2023-05-20T07:03:23.655Z,102588.59
2023-05-20T07:05:51.284Z,102589.31
2023-05-20T07:08:17.644Z,102583.84
2023-05-20T07:10:45.174Z,102582.84
2023-05-20T07:13:11.573Z,102576.44
2023-05-20T07:15:38.349Z,102572.75
2023-05-20T07:18:04.811Z,102576.25
2023-05-20T07:20:31.329Z,102574.34
2023-05-20T07:22:57.758Z,102573.34
2023-05-20T07:25:24.205Z,102569.59
2023-05-20T07:27:50.574Z,102572.22
2023-05-20T07:30:17.073Z,102563.06
2023-05-20T07:32:43.505Z,102566.56
2023-05-20T07:35:09.988Z,102562.88
2023-05-20T07:37:36.386Z,102569.13
2023-05-20T07:40:02.962Z,102558.13
2023-05-20T07:42:29.431Z,102567.09
2023-05-20T07:44:55.819Z,102564.28
2023-05-20T07:47:22.257Z,102560.59
2023-05-20T07:49:48.729Z,102557.00
2023-05-20T07:52:15.170Z,102557.88
2023-05-20T07:54:41.728Z,102550.59
2023-05-20T07:57:08.481Z,102548.63
2023-05-20T07:59:34.957Z,102547.56
2023-05-20T08:02:01.479Z,102547.56
2023-05-20T08:04:28.183Z,102539.09
2023-05-20T08:06:55.150Z,102539.06
2023-05-20T08:09:21.755Z,102536.34
2023-05-20T08:11:48.219Z,102535.41
2023-05-20T08:14:14.562Z,102530.88
2023-05-20T08:16:42.433Z,102539.91
2023-05-20T08:19:09.115Z,102534.38
2023-05-20T08:21:35.597Z,102537.88
2023-05-20T08:24:02.008Z,102540.47
2023-05-20T08:26:28.434Z,102535.00
2023-05-20T08:28:55.003Z,102534.88
2023-05-20T08:31:21.491Z,102537.53
2023-05-20T08:33:48.011Z,102532.97
2023-05-20T08:36:14.444Z,102535.59
2023-05-20T08:38:40.901Z,102530.13
2023-05-20T08:41:07.317Z,102528.22
2023-05-20T08:43:34.455Z,102525.38
2023-05-20T08:46:04.981Z,102522.56
2023-05-20T08:48:31.935Z,102523.31
2023-05-20T08:50:58.561Z,102516.91
2023-05-20T08:53:26.662Z,102518.47
2023-05-20T08:56:00.832Z,102512.84
2023-05-20T08:58:28.701Z,102510.00
2023-05-20T09:00:55.455Z,102499.06
2023-05-20T09:03:22.049Z,102505.41
2023-05-20T09:05:48.649Z,102494.31
2023-05-20T09:08:15.235Z,102506.91
2023-05-20T09:10:42.172Z,102502.22
2023-05-20T09:13:09.858Z,102502.91
2023-05-20T09:15:37.274Z,102495.53
2023-05-20T09:18:05.547Z,102498.25
2023-05-20T09:20:37.306Z,102503.59
2023-05-20T09:23:06.430Z,102499.78
2023-05-20T09:25:33.845Z,102488.78
2023-05-20T09:28:00.453Z,102495.81
2023-05-20T09:30:27.005Z,102491.25
2023-05-20T09:32:55.064Z,102487.50
2023-05-20T09:35:23.220Z,102493.66
2023-05-20T09:37:53.905Z,102477.97
2023-05-20T09:40:24.004Z,102481.38
2023-05-20T09:43:08.719Z,102475.63
2023-05-20T09:45:35.654Z,102470.97
2023-05-20T09:48:03.887Z,102482.47
2023-05-20T09:50:31.602Z,102474.94
2023-05-20T09:53:02.541Z,102464.81
2023-05-20T09:55:30.216Z,102477.22
2023-05-20T09:57:58.691Z,102464.34
2023-05-20T10:00:25.094Z,102456.81
2023-05-20T10:02:52.648Z,102464.72
2023-05-20T10:05:21.956Z,102454.47
2023-05-20T10:08:22.543Z,102460.59
2023-05-20T10:11:04.156Z,102469.59
2023-05-20T10:13:49.357Z,102462.94
2023-05-20T10:16:49.466Z,102460.78
2023-05-20T10:19:29.923Z,102451.28
2023-05-20T10:22:08.502Z,102445.53
2023-05-20T10:24:37.797Z,102445.44
2023-05-20T10:27:08.804Z,102436.94
2023-05-20T10:29:43.204Z,102430.19
2023-05-20T10:32:09.749Z,102436.22
2023-05-20T10:34:49.075Z,102428.69
2023-05-20T10:37:27.381Z,102431.22
2023-05-20T10:40:05.571Z,102421.91
2023-05-20T10:42:32.020Z,102405.22
2023-05-20T10:44:58.432Z,102411.22
2023-05-20T10:47:26.532Z,102413.66
2023-05-20T10:49:53.179Z,102409.81
2023-05-20T10:52:20.324Z,102424.19
2023-05-20T10:54:51.524Z,102426.94
2023-05-20T10:57:18.478Z,102420.19
2023-05-20T10:59:44.948Z,102414.72
2023-05-20T11:02:14.212Z,102402.56
2023-05-20T11:04:43.361Z,102392.94
2023-05-20T11:07:10.026Z,102393.19
2023-05-20T11:09:36.879Z,102397.75
2023-05-20T11:12:03.509Z,102400.97
2023-05-20T11:14:30.258Z,102396.03
2023-05-20T11:17:00.299Z,102381.34
2023-05-20T11:19:27.657Z,102394.72
2023-05-20T11:21:54.603Z,102385.19
2023-05-20T11:24:26.456Z,102391.22
2023-05-20T11:26:54.112Z,102383.19
2023-05-20T11:29:22.345Z,102387.94
2023-05-20T11:31:51.175Z,102380.13
2023-05-20T11:34:25.007Z,102388.78
2023-05-20T11:36:57.196Z,102379.34
2023-05-20T11:39:24.160Z,102380.00
2023-05-20T11:41:50.800Z,102377.59
2023-05-20T11:44:20.086Z,102367.91
2023-05-20T11:46:48.053Z,102370.06
2023-05-20T11:49:15.554Z,102365.63
2023-05-20T11:51:43.310Z,102370.53
2023-05-20T11:54:10.612Z,102359.72
2023-05-20T11:56:38.397Z,102351.88
2023-05-20T11:59:06.521Z,102349.91
2023-05-20T12:01:37.651Z,102341.88
2023-05-20T12:04:05.595Z,102337.50
2023-05-20T12:06:32.446Z,102333.44
2023-05-20T12:09:06.659Z,102321.28
2023-05-20T12:11:37.346Z,102329.59
2023-05-20T12:14:04.588Z,102308.66
2023-05-20T12:16:32.337Z,102321.06
2023-05-20T12:18:58.821Z,102331.91
2023-05-20T12:21:25.375Z,102321.75
2023-05-20T12:23:57.407Z,102318.25
2023-05-20T12:26:25.804Z,102321.50
2023-05-20T12:28:52.371Z,102328.97
2023-05-20T12:31:19.022Z,102320.34
2023-05-20T12:33:45.659Z,102330.97
2023-05-20T12:36:13.072Z,102326.09
2023-05-20T12:38:39.875Z,102327.25
2023-05-20T12:41:06.430Z,102323.50
2023-05-20T12:43:34.066Z,102327.59
2023-05-20T12:46:02.146Z,102327.47
2023-05-20T12:48:28.586Z,102312.97
2023-05-20T12:50:55.001Z,102318.44
2023-05-20T12:53:21.386Z,102327.28
2023-05-20T12:55:47.795Z,102324.19
2023-05-20T12:58:14.243Z,102306.34
2023-05-20T13:00:40.834Z,102309.84
2023-05-20T13:03:07.597Z,102308.34
2023-05-20T13:05:34.192Z,102312.44
2023-05-20T13:08:00.651Z,102310.81
2023-05-20T13:10:27.196Z,102307.19
2023-05-20T13:12:53.745Z,102311.81
2023-05-20T13:15:20.274Z,102313.66
2023-05-20T13:17:46.667Z,102299.59
2023-05-20T13:20:13.404Z,102303.84
2023-05-20T13:22:39.862Z,102301.72
2023-05-20T13:25:06.734Z,102293.88
2023-05-20T13:29:59.432Z,102293.88
2023-05-20T13:32:25.901Z,102303.53
2023-05-20T13:34:52.386Z,102301.41
2023-05-20T13:37:18.836Z,102299.66
2023-05-20T13:39:45.236Z,102298.28
2023-05-20T13:42:11.644Z,102289.66
2023-05-20T13:44:38.035Z,102295.28
2023-05-20T13:47:04.514Z,102285.00
2023-05-20T13:49:31.000Z,102277.38
2023-05-20T13:51:57.384Z,102273.38
2023-05-20T13:54:25.118Z,102272.63
2023-05-20T13:56:53.222Z,102274.00
2023-05-20T13:59:20.431Z,102257.94
2023-05-20T14:01:46.925Z,102260.91
2023-05-20T14:04:13.383Z,102254.06
2023-05-20T14:06:40.395Z,102264.53
2023-05-20T14:09:08.881Z,102249.69
2023-05-20T14:11:35.304Z,102251.03
2023-05-20T14:14:01.697Z,102246.56
2023-05-20T14:16:28.169Z,102243.44
2023-05-20T14:18:54.668Z,102243.06
2023-05-20T14:21:21.213Z,102240.84
2023-05-20T14:23:47.714Z,102228.22
2023-05-20T14:26:14.176Z,102225.00
2023-05-20T14:28:40.733Z,102229.00
2023-05-20T14:31:09.696Z,102230.59
2023-05-20T14:33:36.420Z,102229.59
2023-05-20T14:36:03.065Z,102228.06
2023-05-20T14:38:29.540Z,102228.31
2023-05-20T14:40:56.010Z,102218.59
2023-05-20T14:43:22.444Z,102223.22
2023-05-20T14:45:49.046Z,102218.00
2023-05-20T14:48:15.573Z,102219.53
2023-05-20T14:50:42.025Z,102218.88
2023-05-20T14:53:08.590Z,102209.00
2023-05-20T14:55:35.037Z,102213.84
2023-05-20T14:58:01.702Z,102210.25
2023-05-20T15:00:28.168Z,102202.09
2023-05-20T15:02:54.957Z,102207.22
2023-05-20T15:05:21.528Z,102200.06
2023-05-20T15:07:47.949Z,102197.81
2023-05-20T15:10:14.446Z,102197.19
2023-05-20T15:12:41.022Z,102192.81
2023-05-20T15:15:08.877Z,102195.69
2023-05-20T15:17:35.647Z,102197.91
2023-05-20T15:20:02.306Z,102199.25
2023-05-20T15:22:29.345Z,102193.25
2023-05-20T15:24:55.787Z,102195.34
2023-05-20T15:27:22.222Z,102197.47
2023-05-20T15:29:48.678Z,102194.09
2023-05-20T15:32:15.250Z,102196.97
2023-05-20T15:34:41.672Z,102192.72
2023-05-20T15:37:08.168Z,102188.31
2023-05-20T15:39:37.348Z,102187.81
2023-05-20T15:42:04.000Z,102193.53
2023-05-20T15:44:30.861Z,102185.56
2023-05-20T15:46:57.321Z,102181.06
2023-05-20T15:49:23.749Z,102188.50
2023-05-20T15:52:02.384Z,102184.03
2023-05-20T15:54:29.814Z,102186.88
2023-05-20T15:56:56.591Z,102188.97
2023-05-20T15:59:23.093Z,102191.97
2023-05-20T16:01:49.506Z,102190.19
2023-05-20T16:04:16.208Z,102181.25
2023-05-20T16:06:42.688Z,102168.63
2023-05-20T16:09:09.077Z,102179.59
2023-05-20T16:11:36.346Z,102170.72
2023-05-20T16:14:02.810Z,102164.47
2023-05-20T16:16:29.225Z,102171.72
2023-05-20T16:18:55.965Z,102166.22
2023-05-20T16:21:24.845Z,102170.09
2023-05-20T16:23:52.664Z,102162.50
2023-05-20T16:26:19.180Z,102163.25
2023-05-20T16:28:45.598Z,102155.91
2023-05-20T16:31:12.176Z,102151.31
2023-05-20T16:33:38.746Z,102159.44
2023-05-20T16:36:05.508Z,102155.72
2023-05-20T16:38:34.226Z,102157.47
2023-05-20T16:41:01.450Z,102161.19
2023-05-20T16:43:27.851Z,102149.34
2023-05-20T16:45:54.370Z,102153.84
2023-05-20T16:48:21.313Z,102151.13
2023-05-20T16:50:47.785Z,102150.25
2023-05-20T16:53:16.238Z,102145.84
2023-05-20T16:55:42.854Z,102149.47
2023-05-20T16:58:09.369Z,102154.94
2023-05-20T17:00:35.926Z,102158.75
2023-05-20T17:03:02.514Z,102155.28
2023-05-20T17:05:28.964Z,102163.50
2023-05-20T17:07:59.799Z,102158.03
2023-05-20T17:10:26.388Z,102165.34
2023-05-20T17:12:52.844Z,102157.25
2023-05-20T17:15:19.375Z,102169.31
2023-05-20T17:17:45.929Z,102170.44
2023-05-20T17:20:12.955Z,102164.19
2023-05-20T17:22:39.596Z,102164.41
2023-05-20T17:25:06.339Z,102164.53
2023-05-20T17:27:33.282Z,102165.53
2023-05-20T17:29:59.872Z,102170.13
2023-05-20T17:32:26.425Z,102163.91
2023-05-20T17:34:52.905Z,102164.97
2023-05-20T17:37:19.393Z,102160.63
2023-05-20T17:39:46.038Z,102163.50
2023-05-20T17:42:12.461Z,102169.06
2023-05-20T17:44:38.829Z,102171.06
2023-05-20T17:47:05.248Z,102172.03
2023-05-20T17:49:31.676Z,102184.31
2023-05-20T17:51:58.064Z,102179.94
2023-05-20T17:54:24.426Z,102172.72
2023-05-20T17:56:51.225Z,102176.69
2023-05-20T17:59:17.791Z,102176.03
2023-05-20T18:01:44.826Z,102180.88
2023-05-20T18:04:11.519Z,102190.16
2023-05-20T18:06:38.092Z,102201.22
2023-05-20T18:09:05.896Z,102202.19
2023-05-20T18:11:34.878Z,102204.94
2023-05-20T18:14:02.007Z,102205.91
2023-05-20T18:16:30.086Z,102211.63
2023-05-20T18:18:57.435Z,102211.63
2023-05-20T18:21:24.714Z,102201.66
2023-05-20T18:23:51.306Z,102203.63
2023-05-20T18:26:17.746Z,102208.22
2023-05-20T18:28:44.199Z,102210.09
2023-05-20T18:31:10.735Z,102211.94
2023-05-20T18:33:37.178Z,102211.94
2023-05-20T18:36:05.510Z,102214.81
2023-05-20T18:38:32.128Z,102211.28
2023-05-20T18:40:59.181Z,102212.28
2023-05-20T18:43:26.280Z,102213.28
2023-05-20T18:45:52.856Z,102208.03
2023-05-20T18:48:26.029Z,102211.50
2023-05-20T18:50:53.459Z,102209.78
2023-05-20T18:53:19.938Z,102210.75
2023-05-20T18:55:47.328Z,102206.28
2023-05-20T18:58:14.579Z,102202.78
2023-05-20T19:00:41.822Z,102201.00
2023-05-20T19:03:08.387Z,102204.69
2023-05-20T19:05:35.089Z,102203.81
2023-05-20T19:08:02.613Z,102200.25
2023-05-20T19:10:29.444Z,102196.50
2023-05-20T19:12:56.136Z,102196.63
2023-05-20T19:15:22.672Z,102196.63
2023-05-20T19:17:49.147Z,102199.47
2023-05-20T19:20:15.759Z,102204.94
2023-05-20T19:22:42.147Z,102200.44
2023-05-20T19:25:08.884Z,102209.66
2023-05-20T19:27:35.541Z,102209.75
2023-05-20T19:30:02.122Z,102213.34
2023-05-20T19:32:28.539Z,102212.59
2023-05-20T19:34:54.921Z,102222.66
2023-05-20T19:37:23.166Z,102232.72
2023-05-20T19:39:49.928Z,102240.03
2023-05-20T19:42:16.536Z,102238.41
2023-05-20T19:44:42.981Z,102235.69
2023-05-20T19:47:09.481Z,102230.22
2023-05-20T19:49:36.299Z,102229.44
2023-05-20T19:52:02.780Z,102235.78
2023-05-20T19:54:29.368Z,102234.00
2023-05-20T19:56:55.766Z,102228.69
2023-05-20T19:59:22.200Z,102223.22
2023-05-20T20:01:48.693Z,102225.94
2023-05-20T20:04:17.129Z,102225.94
2023-05-20T20:06:43.936Z,102225.06
2023-05-20T20:09:10.576Z,102222.41
2023-05-20T20:11:37.132Z,102227.88
2023-05-20T20:14:03.535Z,102227.88
2023-05-20T20:16:30.290Z,102237.09
2023-05-20T20:18:56.835Z,102231.63
2023-05-20T20:21:25.641Z,102237.97
2023-05-20T20:23:52.801Z,102228.91
2023-05-20T20:26:22.615Z,102231.63
2023-05-20T20:28:49.065Z,102227.88
2023-05-20T20:31:15.535Z,102230.75
2023-05-20T20:33:41.922Z,102231.63
2023-05-20T20:36:09.279Z,102228.03
2023-05-20T20:38:37.498Z,102226.25
2023-05-20T20:41:03.994Z,102220.03
2023-05-20T20:43:30.459Z,102222.88
2023-05-20T20:45:56.989Z,102212.06
2023-05-20T20:48:26.980Z,102219.38
2023-05-20T20:50:53.915Z,102216.75
2023-05-20T20:53:20.510Z,102219.59
2023-05-20T20:55:46.924Z,102219.59
2023-05-20T20:58:15.219Z,102222.44
2023-05-20T21:00:44.435Z,102232.47
2023-05-20T21:03:12.027Z,102222.53
2023-05-20T21:05:39.132Z,102217.06
2023-05-20T21:08:08.209Z,102223.53
2023-05-20T21:10:36.935Z,102219.91
2023-05-20T21:13:03.687Z,102226.34
2023-05-20T21:15:30.211Z,102217.28
2023-05-20T21:17:56.711Z,102217.41
2023-05-20T21:20:23.205Z,102210.19
2023-05-20T21:22:49.657Z,102214.75
2023-05-20T21:25:16.243Z,102213.00
2023-05-20T21:27:42.681Z,102216.75
2023-05-20T21:30:10.643Z,102219.56
2023-05-20T21:32:37.725Z,102215.97
2023-05-20T21:35:04.654Z,102216.09
2023-05-20T21:37:31.080Z,102215.22
2023-05-20T21:39:57.535Z,102207.09
2023-05-20T21:42:23.910Z,102211.69
2023-05-20T21:44:50.291Z,102205.34
2023-05-20T21:47:16.712Z,102197.16
2023-05-20T21:49:43.141Z,102199.88
2023-05-20T21:52:09.585Z,102201.63
2023-05-20T21:54:36.209Z,102189.94
2023-05-20T21:57:02.750Z,102185.47
2023-05-20T21:59:29.258Z,102181.84
2023-05-20T22:01:57.771Z,102183.69
2023-05-20T22:04:25.032Z,102175.63
2023-05-20T22:06:51.590Z,102173.88
2023-05-20T22:09:18.213Z,102173.88
2023-05-20T22:11:47.957Z,102170.38
2023-05-20T22:14:16.280Z,102172.25
2023-05-20T22:16:46.840Z,102171.34
2023-05-20T22:19:13.955Z,102167.84
2023-05-20T22:21:50.212Z,102166.13
2023-05-20T22:24:17.933Z,102172.56
2023-05-20T22:26:44.778Z,102168.06
2023-05-20T22:29:11.232Z,102165.31
2023-05-20T22:31:38.182Z,102145.44
2023-05-20T22:34:05.441Z,102150.03
2023-05-20T22:36:36.277Z,102138.22
2023-05-20T22:39:04.486Z,102142.94
2023-05-20T22:41:31.004Z,102144.78
2023-05-20T22:43:57.576Z,102135.72
2023-05-20T22:46:25.072Z,102133.97
2023-05-20T22:48:55.535Z,102145.88
2023-05-20T22:51:22.525Z,102145.88
2023-05-20T22:53:49.156Z,102149.59
2023-05-20T22:56:16.054Z,102145.09
2023-05-20T22:58:43.705Z,102148.72
2023-05-20T23:01:10.422Z,102148.81
2023-05-20T23:03:37.206Z,102142.59
2023-05-20T23:06:04.074Z,102149.03
2023-05-20T23:08:30.635Z,102155.50
2023-05-20T23:10:57.055Z,102147.31
2023-05-20T23:13:23.513Z,102143.78
2023-05-20T23:15:50.064Z,102138.44
2023-05-20T23:18:16.914Z,102143.03
2023-05-20T23:20:43.853Z,102141.28
2023-05-20T23:23:11.528Z,102136.75
2023-05-20T23:25:38.394Z,102135.03
2023-05-20T23:28:05.721Z,102132.28
2023-05-20T23:30:32.155Z,102129.75
2023-05-20T23:32:58.698Z,102127.91
2023-05-20T23:35:25.701Z,102125.28
2023-05-20T23:37:52.320Z,102129.88
2023-05-20T23:40:19.039Z,102126.25
2023-05-20T23:42:45.521Z,102124.50
2023-05-20T23:45:12.286Z,102123.75
2023-05-20T23:47:38.860Z,102119.25
2023-05-20T23:50:05.764Z,102118.38
2023-05-20T23:52:32.210Z,102110.31
2023-05-20T23:54:59.880Z,102115.78
2023-05-20T23:57:26.346Z,102108.56
2023-05-20T23:59:52.968Z,102114.91
